sensor_id;sensor_type;location;lat;lon;timestamp;temperature;humidity
11280;DHT22;5696;50.928;6.960;2023-01-05T06:02:20;11.60;99.90
11280;DHT22;5696;50.928;6.960;2023-01-05T06:04:45;11.60;99.90
11280;DHT22;5696;50.928;6.960;2023-01-05T06:07:11;11.50;99.90
11280;DHT22;5696;50.928;6.960;2023-01-05T06:09:36;11.50;99.90
11280;DHT22;5696;50.928;6.960;2023-01-05T06:12:02;11.50;99.90
11280;DHT22;5696;50.928;6.960;2023-01-05T06:14:28;11.50;99.90
11280;DHT22;5696;50.928;6.960;2023-01-05T06:16:54;11.50;99.90
11280;DHT22;5696;50.928;6.960;2023-01-05T06:19:19;11.50;99.90
11280;DHT22;5696;50.928;6.960;2023-01-05T06:21:45;11.50;99.90
11280;DHT22;5696;50.928;6.960;2023-01-05T06:24:11;11.50;99.90
11280;DHT22;5696;50.928;6.960;2023-01-05T06:26:36;11.50;99.90
11280;DHT22;5696;50.928;6.960;2023-01-05T06:29:02;11.50;99.90
11280;DHT22;5696;50.928;6.960;2023-01-05T06:31:28;11.50;99.90
11280;DHT22;5696;50.928;6.960;2023-01-05T06:33:54;11.50;99.90
11280;DHT22;5696;50.928;6.960;2023-01-05T06:36:22;11.50;99.90
11280;DHT22;5696;50.928;6.960;2023-01-05T06:38:48;11.50;99.90
11280;DHT22;5696;50.928;6.960;2023-01-05T06:41:13;11.60;99.90
11280;DHT22;5696;50.928;6.960;2023-01-05T06:43:39;11.50;99.90
11280;DHT22;5696;50.928;6.960;2023-01-05T06:46:04;11.50;99.90
11280;DHT22;5696;50.928;6.960;2023-01-05T06:48:30;11.50;99.90
11280;DHT22;5696;50.928;6.960;2023-01-05T06:50:56;11.50;99.90
11280;DHT22;5696;50.928;6.960;2023-01-05T06:53:21;11.50;99.90
11280;DHT22;5696;50.928;6.960;2023-01-05T06:55:47;11.50;99.90
11280;DHT22;5696;50.928;6.960;2023-01-05T06:58:13;11.40;99.90
11280;DHT22;5696;50.928;6.960;2023-01-05T07:00:38;11.50;99.90
11280;DHT22;5696;50.928;6.960;2023-01-05T07:03:05;11.50;99.90
11280;DHT22;5696;50.928;6.960;2023-01-05T07:05:32;11.50;99.90
11280;DHT22;5696;50.928;6.960;2023-01-05T07:07:57;11.40;99.90
11280;DHT22;5696;50.928;6.960;2023-01-05T07:10:23;11.50;99.90
11280;DHT22;5696;50.928;6.960;2023-01-05T07:12:48;11.50;99.90
11280;DHT22;5696;50.928;6.960;2023-01-05T07:15:14;11.40;99.90
11280;DHT22;5696;50.928;6.960;2023-01-05T07:17:40;11.40;99.90
11280;DHT22;5696;50.928;6.960;2023-01-05T07:20:06;11.40;99.90
11280;DHT22;5696;50.928;6.960;2023-01-05T07:22:32;11.40;99.90
11280;DHT22;5696;50.928;6.960;2023-01-05T07:24:58;11.40;99.90
11280;DHT22;5696;50.928;6.960;2023-01-05T07:27:24;11.50;99.90
11280;DHT22;5696;50.928;6.960;2023-01-05T07:29:50;11.50;99.90
11280;DHT22;5696;50.928;6.960;2023-01-05T07:32:15;11.50;99.90
11280;DHT22;5696;50.928;6.960;2023-01-05T07:34:41;11.50;99.90
11280;DHT22;5696;50.928;6.960;2023-01-05T07:37:07;11.50;99.90
11280;DHT22;5696;50.928;6.960;2023-01-05T07:39:32;11.50;99.90
11280;DHT22;5696;50.928;6.960;2023-01-05T07:41:58;11.50;99.90
11280;DHT22;5696;50.928;6.960;2023-01-05T07:44:24;11.40;99.90
11280;DHT22;5696;50.928;6.960;2023-01-05T07:46:50;11.50;99.90
11280;DHT22;5696;50.928;6.960;2023-01-05T07:49:15;11.50;99.90
11280;DHT22;5696;50.928;6.960;2023-01-05T07:51:41;11.50;99.90
11280;DHT22;5696;50.928;6.960;2023-01-05T07:54:07;11.50;99.90
11280;DHT22;5696;50.928;6.960;2023-01-05T07:56:32;11.40;99.90
11280;DHT22;5696;50.928;6.960;2023-01-05T07:58:59;11.40;99.90
11280;DHT22;5696;50.928;6.960;2023-01-05T08:01:24;11.40;99.90
11280;DHT22;5696;50.928;6.960;2023-01-05T08:03:50;11.40;99.90
11280;DHT22;5696;50.928;6.960;2023-01-05T08:06:17;11.40;99.90
11280;DHT22;5696;50.928;6.960;2023-01-05T08:08:44;11.50;99.90
11280;DHT22;5696;50.928;6.960;2023-01-05T08:11:12;11.50;99.90
11280;DHT22;5696;50.928;6.960;2023-01-05T08:13:42;11.50;99.90
11280;DHT22;5696;50.928;6.960;2023-01-05T08:16:28;11.50;99.90
11280;DHT22;5696;50.928;6.960;2023-01-05T08:18:54;11.50;99.90
11280;DHT22;5696;50.928;6.960;2023-01-05T08:21:20;11.50;99.90
11280;DHT22;5696;50.928;6.960;2023-01-05T08:23:45;11.60;99.90
11280;DHT22;5696;50.928;6.960;2023-01-05T08:26:16;11.60;99.90
11280;DHT22;5696;50.928;6.960;2023-01-05T08:28:43;11.60;99.90
11280;DHT22;5696;50.928;6.960;2023-01-05T08:31:26;11.60;99.90
11280;DHT22;5696;50.928;6.960;2023-01-05T08:33:56;11.70;99.90
11280;DHT22;5696;50.928;6.960;2023-01-05T08:36:25;11.70;99.90
11280;DHT22;5696;50.928;6.960;2023-01-05T08:38:52;11.70;99.90
11280;DHT22;5696;50.928;6.960;2023-01-05T08:41:26;11.90;99.90
11280;DHT22;5696;50.928;6.960;2023-01-05T08:43:56;12.00;99.90
11280;DHT22;5696;50.928;6.960;2023-01-05T08:46:25;11.90;99.90
11280;DHT22;5696;50.928;6.960;2023-01-05T08:48:55;11.90;99.90
11280;DHT22;5696;50.928;6.960;2023-01-05T08:51:21;11.90;99.90
11280;DHT22;5696;50.928;6.960;2023-01-05T08:53:46;12.00;99.90
11280;DHT22;5696;50.928;6.960;2023-01-05T08:56:12;12.00;99.90
11280;DHT22;5696;50.928;6.960;2023-01-05T08:58:39;12.00;99.90
11280;DHT22;5696;50.928;6.960;2023-01-05T09:01:09;12.10;99.90
11280;DHT22;5696;50.928;6.960;2023-01-05T09:03:35;12.20;99.90
11280;DHT22;5696;50.928;6.960;2023-01-05T09:06:02;12.20;99.90
11280;DHT22;5696;50.928;6.960;2023-01-05T09:08:29;12.20;99.90
11280;DHT22;5696;50.928;6.960;2023-01-05T09:11:11;12.30;99.90
11280;DHT22;5696;50.928;6.960;2023-01-05T09:13:38;12.30;99.90
11280;DHT22;5696;50.928;6.960;2023-01-05T09:16:10;12.30;99.90
11280;DHT22;5696;50.928;6.960;2023-01-05T09:18:36;12.40;99.90
11280;DHT22;5696;50.928;6.960;2023-01-05T09:21:02;12.50;99.90
11280;DHT22;5696;50.928;6.960;2023-01-05T09:23:28;12.50;99.90
11280;DHT22;5696;50.928;6.960;2023-01-05T09:25:54;12.50;99.90
11280;DHT22;5696;50.928;6.960;2023-01-05T09:28:20;12.60;99.90
11280;DHT22;5696;50.928;6.960;2023-01-05T09:30:45;12.80;99.90
11280;DHT22;5696;50.928;6.960;2023-01-05T09:33:11;13.00;99.90
11280;DHT22;5696;50.928;6.960;2023-01-05T09:35:37;12.90;99.90
11280;DHT22;5696;50.928;6.960;2023-01-05T09:38:02;12.90;99.90
11280;DHT22;5696;50.928;6.960;2023-01-05T09:40:31;12.90;99.90
11280;DHT22;5696;50.928;6.960;2023-01-05T09:42:59;12.90;99.90
11280;DHT22;5696;50.928;6.960;2023-01-05T09:45:26;13.00;99.90
11280;DHT22;5696;50.928;6.960;2023-01-05T09:47:54;13.10;99.90
11280;DHT22;5696;50.928;6.960;2023-01-05T09:50:24;13.10;99.90
11280;DHT22;5696;50.928;6.960;2023-01-05T09:52:53;13.20;99.90
11280;DHT22;5696;50.928;6.960;2023-01-05T09:55:23;13.20;99.90
11280;DHT22;5696;50.928;6.960;2023-01-05T09:57:53;13.20;99.90
11280;DHT22;5696;50.928;6.960;2023-01-05T10:00:21;13.00;99.90
11280;DHT22;5696;50.928;6.960;2023-01-05T10:03:04;13.00;99.90
11280;DHT22;5696;50.928;6.960;2023-01-05T10:05:38;13.10;99.90
11280;DHT22;5696;50.928;6.960;2023-01-05T10:08:19;13.10;99.90
11280;DHT22;5696;50.928;6.960;2023-01-05T10:10:54;13.10;99.90
11280;DHT22;5696;50.928;6.960;2023-01-05T10:13:50;13.10;99.90
11280;DHT22;5696;50.928;6.960;2023-01-05T10:16:20;13.10;99.90
11280;DHT22;5696;50.928;6.960;2023-01-05T10:18:45;13.10;99.90
11280;DHT22;5696;50.928;6.960;2023-01-05T10:29:16;12.90;99.90
11280;DHT22;5696;50.928;6.960;2023-01-05T10:34:48;13.00;99.90
11280;DHT22;5696;50.928;6.960;2023-01-05T10:45:29;13.40;99.90
11280;DHT22;5696;50.928;6.960;2023-01-05T10:47:55;13.40;99.90
11280;DHT22;5696;50.928;6.960;2023-01-05T10:50:24;13.50;99.90
11280;DHT22;5696;50.928;6.960;2023-01-05T10:52:52;13.50;99.90
11280;DHT22;5696;50.928;6.960;2023-01-05T10:55:19;13.40;99.90
11280;DHT22;5696;50.928;6.960;2023-01-05T10:57:46;13.70;99.90
11280;DHT22;5696;50.928;6.960;2023-01-05T11:00:13;13.80;99.90
11280;DHT22;5696;50.928;6.960;2023-01-05T11:03:00;13.90;99.90
11280;DHT22;5696;50.928;6.960;2023-01-05T11:05:36;14.00;99.90
11280;DHT22;5696;50.928;6.960;2023-01-05T11:08:13;14.00;99.90
11280;DHT22;5696;50.928;6.960;2023-01-05T11:11:08;13.70;99.90
11280;DHT22;5696;50.928;6.960;2023-01-05T11:13:45;13.70;99.90
11280;DHT22;5696;50.928;6.960;2023-01-05T11:16:15;13.80;99.90
11280;DHT22;5696;50.928;6.960;2023-01-05T11:24:03;13.70;99.90
11280;DHT22;5696;50.928;6.960;2023-01-05T11:26:47;13.60;99.90
11280;DHT22;5696;50.928;6.960;2023-01-05T11:29:14;13.60;99.90
11280;DHT22;5696;50.928;6.960;2023-01-05T11:31:44;13.60;99.90
11280;DHT22;5696;50.928;6.960;2023-01-05T11:34:15;13.80;99.90
11280;DHT22;5696;50.928;6.960;2023-01-05T11:37:00;13.80;99.90
11280;DHT22;5696;50.928;6.960;2023-01-05T11:39:39;13.90;99.90
11280;DHT22;5696;50.928;6.960;2023-01-05T11:44:58;13.70;99.90
11280;DHT22;5696;50.928;6.960;2023-01-05T11:47:36;13.80;99.90
11280;DHT22;5696;50.928;6.960;2023-01-05T11:50:23;14.00;99.90
11280;DHT22;5696;50.928;6.960;2023-01-05T11:52:52;14.00;99.90
11280;DHT22;5696;50.928;6.960;2023-01-05T11:55:26;13.80;99.90
11280;DHT22;5696;50.928;6.960;2023-01-05T11:58:13;13.70;99.90
11280;DHT22;5696;50.928;6.960;2023-01-05T12:14:25;14.30;99.90
11280;DHT22;5696;50.928;6.960;2023-01-05T12:17:01;14.10;99.90
11280;DHT22;5696;50.928;6.960;2023-01-05T12:22:45;13.80;99.90
11280;DHT22;5696;50.928;6.960;2023-01-05T12:25:39;13.90;99.90
11280;DHT22;5696;50.928;6.960;2023-01-05T12:28:26;14.00;99.90
11280;DHT22;5696;50.928;6.960;2023-01-05T12:34:05;14.10;99.90
11280;DHT22;5696;50.928;6.960;2023-01-05T12:42:52;14.40;99.90
11280;DHT22;5696;50.928;6.960;2023-01-05T12:48:06;14.70;99.90
11280;DHT22;5696;50.928;6.960;2023-01-05T12:50:43;14.60;99.90
11280;DHT22;5696;50.928;6.960;2023-01-05T12:53:37;14.20;99.90
11280;DHT22;5696;50.928;6.960;2023-01-05T12:56:16;14.20;99.90
11280;DHT22;5696;50.928;6.960;2023-01-05T12:59:19;14.10;99.90
11280;DHT22;5696;50.928;6.960;2023-01-05T13:04:40;14.00;99.90
11280;DHT22;5696;50.928;6.960;2023-01-05T13:07:13;14.00;99.90
11280;DHT22;5696;50.928;6.960;2023-01-05T13:09:41;14.00;99.90
11280;DHT22;5696;50.928;6.960;2023-01-05T13:12:09;13.90;99.90
11280;DHT22;5696;50.928;6.960;2023-01-05T13:14:47;13.80;99.90
11280;DHT22;5696;50.928;6.960;2023-01-05T13:17:31;13.70;99.90
11280;DHT22;5696;50.928;6.960;2023-01-05T13:22:57;13.70;99.90
11280;DHT22;5696;50.928;6.960;2023-01-05T13:25:28;13.80;99.90
11280;DHT22;5696;50.928;6.960;2023-01-05T13:27:54;13.80;99.90
11280;DHT22;5696;50.928;6.960;2023-01-05T13:30:32;13.70;99.90
11280;DHT22;5696;50.928;6.960;2023-01-05T13:33:40;13.80;99.90
11280;DHT22;5696;50.928;6.960;2023-01-05T13:44:50;13.70;99.90
11280;DHT22;5696;50.928;6.960;2023-01-05T13:50:53;13.40;99.90
11280;DHT22;5696;50.928;6.960;2023-01-05T13:53:17;13.40;99.90
11280;DHT22;5696;50.928;6.960;2023-01-05T13:55:52;13.20;99.90
11280;DHT22;5696;50.928;6.960;2023-01-05T13:58:42;13.20;99.90
11280;DHT22;5696;50.928;6.960;2023-01-05T14:01:31;13.10;99.90
11280;DHT22;5696;50.928;6.960;2023-01-05T14:03:58;13.00;99.90
11280;DHT22;5696;50.928;6.960;2023-01-05T14:06:27;13.00;99.90
11280;DHT22;5696;50.928;6.960;2023-01-05T14:09:05;12.90;99.90
11280;DHT22;5696;50.928;6.960;2023-01-05T14:11:32;12.80;99.90
11280;DHT22;5696;50.928;6.960;2023-01-05T14:14:00;12.80;99.90
11280;DHT22;5696;50.928;6.960;2023-01-05T14:24:45;12.90;99.90
11280;DHT22;5696;50.928;6.960;2023-01-05T14:27:21;13.00;99.90
11280;DHT22;5696;50.928;6.960;2023-01-05T14:40:38;13.10;99.90
11280;DHT22;5696;50.928;6.960;2023-01-05T14:46:05;13.00;99.90
11280;DHT22;5696;50.928;6.960;2023-01-05T14:48:40;13.00;99.90
11280;DHT22;5696;50.928;6.960;2023-01-05T14:51:21;13.10;99.90
11280;DHT22;5696;50.928;6.960;2023-01-05T14:53:53;13.10;99.90
11280;DHT22;5696;50.928;6.960;2023-01-05T14:56:27;13.10;99.90
11280;DHT22;5696;50.928;6.960;2023-01-05T15:01:53;13.00;99.90
11280;DHT22;5696;50.928;6.960;2023-01-05T15:04:27;12.80;99.90
11280;DHT22;5696;50.928;6.960;2023-01-05T15:07:09;12.80;99.90
11280;DHT22;5696;50.928;6.960;2023-01-05T15:32:01;12.60;99.90
11280;DHT22;5696;50.928;6.960;2023-01-05T15:37:37;12.60;99.90
11280;DHT22;5696;50.928;6.960;2023-01-05T15:40:24;12.50;99.90
11280;DHT22;5696;50.928;6.960;2023-01-05T15:42:53;12.50;99.90
11280;DHT22;5696;50.928;6.960;2023-01-05T15:45:29;12.50;99.90
11280;DHT22;5696;50.928;6.960;2023-01-05T15:48:03;12.40;99.90
11280;DHT22;5696;50.928;6.960;2023-01-05T15:50:47;12.40;99.90
11280;DHT22;5696;50.928;6.960;2023-01-05T15:53:33;12.40;99.90
11280;DHT22;5696;50.928;6.960;2023-01-05T15:56:03;12.30;99.90
11280;DHT22;5696;50.928;6.960;2023-01-05T15:58:31;12.40;99.90
11280;DHT22;5696;50.928;6.960;2023-01-05T16:01:20;12.40;99.90
11280;DHT22;5696;50.928;6.960;2023-01-05T16:03:47;12.40;99.90
11280;DHT22;5696;50.928;6.960;2023-01-05T16:06:23;12.40;99.90
11280;DHT22;5696;50.928;6.960;2023-01-05T16:08:52;12.40;99.90
11280;DHT22;5696;50.928;6.960;2023-01-05T16:11:29;12.30;99.90
11280;DHT22;5696;50.928;6.960;2023-01-05T16:19:08;12.20;99.90
11280;DHT22;5696;50.928;6.960;2023-01-05T16:21:44;12.00;99.90
11280;DHT22;5696;50.928;6.960;2023-01-05T16:24:33;12.00;99.90
11280;DHT22;5696;50.928;6.960;2023-01-05T16:27:02;11.90;99.90
11280;DHT22;5696;50.928;6.960;2023-01-05T16:29:38;11.90;99.90
11280;DHT22;5696;50.928;6.960;2023-01-05T16:35:22;11.80;99.90
11280;DHT22;5696;50.928;6.960;2023-01-05T16:40:35;11.60;99.90
11280;DHT22;5696;50.928;6.960;2023-01-05T16:43:02;11.50;99.90
11280;DHT22;5696;50.928;6.960;2023-01-05T16:45:31;11.50;99.90
11280;DHT22;5696;50.928;6.960;2023-01-05T16:47:58;11.50;99.90
11280;DHT22;5696;50.928;6.960;2023-01-05T16:53:03;11.40;99.90
11280;DHT22;5696;50.928;6.960;2023-01-05T16:55:34;11.40;99.90
11280;DHT22;5696;50.928;6.960;2023-01-05T16:58:02;11.40;99.90
11280;DHT22;5696;50.928;6.960;2023-01-05T17:02:54;11.30;99.90
11280;DHT22;5696;50.928;6.960;2023-01-05T17:05:26;11.30;99.90
11280;DHT22;5696;50.928;6.960;2023-01-05T17:08:08;11.20;99.90
11280;DHT22;5696;50.928;6.960;2023-01-05T17:10:39;11.20;99.90
11280;DHT22;5696;50.928;6.960;2023-01-05T17:13:09;11.20;99.90
11280;DHT22;5696;50.928;6.960;2023-01-05T17:15:36;11.20;99.90
11280;DHT22;5696;50.928;6.960;2023-01-05T17:18:14;11.20;99.90
11280;DHT22;5696;50.928;6.960;2023-01-05T17:20:41;11.20;99.90
11280;DHT22;5696;50.928;6.960;2023-01-05T17:25:53;11.20;99.90
11280;DHT22;5696;50.928;6.960;2023-01-05T17:28:21;11.20;99.90
11280;DHT22;5696;50.928;6.960;2023-01-05T17:30:49;11.10;99.90
11280;DHT22;5696;50.928;6.960;2023-01-05T17:33:15;11.20;99.90
11280;DHT22;5696;50.928;6.960;2023-01-05T17:35:41;11.20;99.90
11280;DHT22;5696;50.928;6.960;2023-01-05T17:38:09;11.20;99.90
11280;DHT22;5696;50.928;6.960;2023-01-05T17:40:35;11.20;99.90
11280;DHT22;5696;50.928;6.960;2023-01-05T17:43:01;11.20;99.90
11280;DHT22;5696;50.928;6.960;2023-01-05T17:45:27;11.20;99.90
11280;DHT22;5696;50.928;6.960;2023-01-05T17:47:54;11.20;99.90
11280;DHT22;5696;50.928;6.960;2023-01-05T17:50:23;11.20;99.90
11280;DHT22;5696;50.928;6.960;2023-01-05T17:52:51;11.20;99.90
11280;DHT22;5696;50.928;6.960;2023-01-05T17:55:16;11.20;99.90
11280;DHT22;5696;50.928;6.960;2023-01-05T17:57:42;11.20;99.90
11280;DHT22;5696;50.928;6.960;2023-01-05T18:00:11;11.20;99.90
11280;DHT22;5696;50.928;6.960;2023-01-05T18:02:37;11.20;99.90
11280;DHT22;5696;50.928;6.960;2023-01-05T18:05:03;11.20;99.90
11280;DHT22;5696;50.928;6.960;2023-01-05T18:07:29;11.20;99.90
11280;DHT22;5696;50.928;6.960;2023-01-05T18:09:56;11.20;99.90
11280;DHT22;5696;50.928;6.960;2023-01-05T18:12:22;11.20;99.90
11280;DHT22;5696;50.928;6.960;2023-01-05T18:14:48;11.20;99.90
11280;DHT22;5696;50.928;6.960;2023-01-05T18:17:14;11.20;99.90
11280;DHT22;5696;50.928;6.960;2023-01-05T18:19:41;11.20;99.90
11280;DHT22;5696;50.928;6.960;2023-01-05T18:22:07;11.20;99.90
11280;DHT22;5696;50.928;6.960;2023-01-05T18:24:33;11.20;99.90
11280;DHT22;5696;50.928;6.960;2023-01-05T18:26:58;11.20;99.90
11280;DHT22;5696;50.928;6.960;2023-01-05T18:29:26;11.10;99.90
11280;DHT22;5696;50.928;6.960;2023-01-05T18:31:53;11.10;99.90
11280;DHT22;5696;50.928;6.960;2023-01-05T18:34:18;11.10;99.90
11280;DHT22;5696;50.928;6.960;2023-01-05T18:36:44;11.10;99.90
11280;DHT22;5696;50.928;6.960;2023-01-05T18:39:10;11.10;99.90
11280;DHT22;5696;50.928;6.960;2023-01-05T18:41:35;11.10;99.90
11280;DHT22;5696;50.928;6.960;2023-01-05T18:44:01;11.20;99.90
11280;DHT22;5696;50.928;6.960;2023-01-05T18:46:28;11.20;99.90
11280;DHT22;5696;50.928;6.960;2023-01-05T18:48:54;11.20;99.90
11280;DHT22;5696;50.928;6.960;2023-01-05T18:51:19;11.10;99.90
11280;DHT22;5696;50.928;6.960;2023-01-05T18:53:45;11.10;99.90
11280;DHT22;5696;50.928;6.960;2023-01-05T18:56:12;11.10;99.90
11280;DHT22;5696;50.928;6.960;2023-01-05T18:58:38;11.00;99.90
11280;DHT22;5696;50.928;6.960;2023-01-05T19:01:11;11.00;99.90
11280;DHT22;5696;50.928;6.960;2023-01-05T19:03:38;11.00;99.90
11280;DHT22;5696;50.928;6.960;2023-01-05T19:06:05;11.00;99.90
11280;DHT22;5696;50.928;6.960;2023-01-05T19:08:31;10.90;99.90
11280;DHT22;5696;50.928;6.960;2023-01-05T19:10:57;10.90;99.90
11280;DHT22;5696;50.928;6.960;2023-01-05T19:13:23;11.00;99.90
11280;DHT22;5696;50.928;6.960;2023-01-05T19:15:48;10.90;99.90
11280;DHT22;5696;50.928;6.960;2023-01-05T19:18:14;11.00;99.90
11280;DHT22;5696;50.928;6.960;2023-01-05T19:20:40;11.00;99.90
11280;DHT22;5696;50.928;6.960;2023-01-05T19:23:05;11.00;99.90
11280;DHT22;5696;50.928;6.960;2023-01-05T19:25:31;11.00;99.90
11280;DHT22;5696;50.928;6.960;2023-01-05T19:27:57;11.00;99.90
11280;DHT22;5696;50.928;6.960;2023-01-05T19:30:24;11.00;99.90
11280;DHT22;5696;50.928;6.960;2023-01-05T19:32:50;11.00;99.90
11280;DHT22;5696;50.928;6.960;2023-01-05T19:35:16;11.00;99.90
11280;DHT22;5696;50.928;6.960;2023-01-05T19:37:42;11.00;99.90
11280;DHT22;5696;50.928;6.960;2023-01-05T19:40:09;11.00;99.90
11280;DHT22;5696;50.928;6.960;2023-01-05T19:42:35;10.90;99.90
11280;DHT22;5696;50.928;6.960;2023-01-05T19:45:00;10.80;99.90
11280;DHT22;5696;50.928;6.960;2023-01-05T19:47:28;10.80;99.90
11280;DHT22;5696;50.928;6.960;2023-01-05T19:49:54;10.80;99.90
11280;DHT22;5696;50.928;6.960;2023-01-05T19:52:19;10.80;99.90
11280;DHT22;5696;50.928;6.960;2023-01-05T19:54:45;10.80;99.90
11280;DHT22;5696;50.928;6.960;2023-01-05T19:57:11;10.80;99.90
11280;DHT22;5696;50.928;6.960;2023-01-05T19:59:37;10.80;99.90
11280;DHT22;5696;50.928;6.960;2023-01-05T20:02:04;10.80;99.90
11280;DHT22;5696;50.928;6.960;2023-01-05T20:04:31;10.80;99.90
11280;DHT22;5696;50.928;6.960;2023-01-05T20:06:57;10.90;99.90
11280;DHT22;5696;50.928;6.960;2023-01-05T20:09:23;10.80;99.90
11280;DHT22;5696;50.928;6.960;2023-01-05T20:11:50;10.80;99.90
11280;DHT22;5696;50.928;6.960;2023-01-05T20:14:25;10.80;99.90
11280;DHT22;5696;50.928;6.960;2023-01-05T20:17:02;10.90;99.90
11280;DHT22;5696;50.928;6.960;2023-01-05T20:19:31;10.80;99.90
11280;DHT22;5696;50.928;6.960;2023-01-05T20:21:58;10.80;99.90
11280;DHT22;5696;50.928;6.960;2023-01-05T20:24:27;10.90;99.90
11280;DHT22;5696;50.928;6.960;2023-01-05T20:27:02;10.90;99.90
11280;DHT22;5696;50.928;6.960;2023-01-05T20:29:29;10.90;99.90
11280;DHT22;5696;50.928;6.960;2023-01-05T20:32:15;11.00;99.90
11280;DHT22;5696;50.928;6.960;2023-01-05T20:34:43;11.00;99.90
11280;DHT22;5696;50.928;6.960;2023-01-05T20:37:10;11.00;99.90
11280;DHT22;5696;50.928;6.960;2023-01-05T20:39:40;11.00;99.90
11280;DHT22;5696;50.928;6.960;2023-01-05T20:42:05;11.00;99.90
11280;DHT22;5696;50.928;6.960;2023-01-05T20:44:34;11.00;99.90
11280;DHT22;5696;50.928;6.960;2023-01-05T20:47:02;11.00;99.90
11280;DHT22;5696;50.928;6.960;2023-01-05T20:49:28;11.10;99.90
11280;DHT22;5696;50.928;6.960;2023-01-05T20:51:53;11.10;99.90
11280;DHT22;5696;50.928;6.960;2023-01-05T20:54:19;11.10;99.90
11280;DHT22;5696;50.928;6.960;2023-01-05T20:56:45;11.10;99.90
11280;DHT22;5696;50.928;6.960;2023-01-05T20:59:25;11.00;99.90
11280;DHT22;5696;50.928;6.960;2023-01-05T21:01:53;11.00;99.90
11280;DHT22;5696;50.928;6.960;2023-01-05T21:04:20;11.00;99.90
11280;DHT22;5696;50.928;6.960;2023-01-05T21:06:47;11.00;99.90
11280;DHT22;5696;50.928;6.960;2023-01-05T21:09:13;11.00;99.90
11280;DHT22;5696;50.928;6.960;2023-01-05T21:11:40;11.00;99.90
11280;DHT22;5696;50.928;6.960;2023-01-05T21:14:06;11.00;99.90
11280;DHT22;5696;50.928;6.960;2023-01-05T21:16:38;11.00;99.90
11280;DHT22;5696;50.928;6.960;2023-01-05T21:19:05;11.00;99.90
11280;DHT22;5696;50.928;6.960;2023-01-05T21:21:31;11.00;99.90
11280;DHT22;5696;50.928;6.960;2023-01-05T21:23:58;11.00;99.90
11280;DHT22;5696;50.928;6.960;2023-01-05T21:26:24;11.00;99.90
11280;DHT22;5696;50.928;6.960;2023-01-05T21:28:51;11.00;99.90
11280;DHT22;5696;50.928;6.960;2023-01-05T21:31:22;11.10;99.90
11280;DHT22;5696;50.928;6.960;2023-01-05T21:33:49;11.00;99.90
11280;DHT22;5696;50.928;6.960;2023-01-05T21:36:18;11.00;99.90
11280;DHT22;5696;50.928;6.960;2023-01-05T21:38:51;11.00;99.90
11280;DHT22;5696;50.928;6.960;2023-01-05T21:41:18;11.00;99.90
11280;DHT22;5696;50.928;6.960;2023-01-05T21:44:04;11.10;99.90
11280;DHT22;5696;50.928;6.960;2023-01-05T21:46:31;11.10;99.90
11280;DHT22;5696;50.928;6.960;2023-01-05T21:48:57;11.10;99.90
11280;DHT22;5696;50.928;6.960;2023-01-05T21:51:23;11.10;99.90
11280;DHT22;5696;50.928;6.960;2023-01-05T21:54:08;11.20;99.90
11280;DHT22;5696;50.928;6.960;2023-01-05T21:56:54;11.20;99.90
11280;DHT22;5696;50.928;6.960;2023-01-05T21:59:20;11.20;99.90
11280;DHT22;5696;50.928;6.960;2023-01-05T22:01:47;11.10;99.90
11280;DHT22;5696;50.928;6.960;2023-01-05T22:04:12;11.20;99.90
11280;DHT22;5696;50.928;6.960;2023-01-05T22:06:38;11.20;99.90
11280;DHT22;5696;50.928;6.960;2023-01-05T22:09:05;11.20;99.90
11280;DHT22;5696;50.928;6.960;2023-01-05T22:11:31;11.20;99.90
11280;DHT22;5696;50.928;6.960;2023-01-05T22:13:57;11.20;99.90
11280;DHT22;5696;50.928;6.960;2023-01-05T22:16:25;11.20;99.90
11280;DHT22;5696;50.928;6.960;2023-01-05T22:18:51;11.20;99.90
11280;DHT22;5696;50.928;6.960;2023-01-05T22:21:16;11.20;99.90
11280;DHT22;5696;50.928;6.960;2023-01-05T22:23:42;11.20;99.90
11280;DHT22;5696;50.928;6.960;2023-01-05T22:26:11;11.20;99.90
11280;DHT22;5696;50.928;6.960;2023-01-05T22:28:39;11.20;99.90
11280;DHT22;5696;50.928;6.960;2023-01-05T22:31:17;11.20;99.90
11280;DHT22;5696;50.928;6.960;2023-01-05T22:33:45;11.20;99.90
11280;DHT22;5696;50.928;6.960;2023-01-05T22:36:13;11.20;99.90
11280;DHT22;5696;50.928;6.960;2023-01-05T22:38:41;11.30;99.90
11280;DHT22;5696;50.928;6.960;2023-01-05T22:41:08;11.30;99.90
11280;DHT22;5696;50.928;6.960;2023-01-05T22:43:36;11.30;99.90
11280;DHT22;5696;50.928;6.960;2023-01-05T22:46:09;11.30;99.90
11280;DHT22;5696;50.928;6.960;2023-01-05T22:48:37;11.40;99.90
11280;DHT22;5696;50.928;6.960;2023-01-05T22:51:22;11.40;99.90
11280;DHT22;5696;50.928;6.960;2023-01-05T22:53:48;11.40;99.90
11280;DHT22;5696;50.928;6.960;2023-01-05T22:56:15;11.40;99.90
11280;DHT22;5696;50.928;6.960;2023-01-05T22:58:41;11.40;99.90
11280;DHT22;5696;50.928;6.960;2023-01-05T23:01:11;11.40;99.90
11280;DHT22;5696;50.928;6.960;2023-01-05T23:03:37;11.40;99.90
11280;DHT22;5696;50.928;6.960;2023-01-05T23:06:03;11.40;99.90
11280;DHT22;5696;50.928;6.960;2023-01-05T23:08:29;11.50;99.90
